Plato — 8PRX — position and weather

sailwx.info

Track history (hours):
 
Tides and Currents Weather Stations Pressure Air Temp Water Temp Dewpoint Dewpoint Depression Visibility Wind Speed Wind Dir Waves Ship Positions

Plato

Last reported at 2015-Jul-05 19:31 UTC. Time now 2015-Jul-05 21:03 UTC.
Position N 56°12' E 012°33'.

Length 88 m; draft 5.3 m.

Type: Ship. MMSI: 314189000.

Date/timePositionNaut miles runAvg speedWind from/ knotsBaromVisibWave heightAir tempDewpointWater temp
2015-Jul-05 19:31N 56°12' E 012°33'0 0.0
2015-Jul-05 18:06N 56°12' E 012°33'0 0.0
2015-Jul-05 12:29N 56°12' E 012°33'0 0.0
2015-Jul-05 11:32N 56°12' E 012°33'0 0.0
2015-Jul-05 10:28N 56°12' E 012°33'0 0.0
2015-Jul-05 09:31N 56°12' E 012°33'2 1.7
2015-Jul-05 08:33N 56°12' E 012°30'6 6.1
2015-Jul-05 07:33N 56°17' E 012°23'8 7.7
2015-Jul-05 06:33N 56°22' E 012°14'8 8.3
2015-Jul-05 05:33N 56°28' E 012°03'8 8.2
2015-Jul-05 04:33N 56°36' E 011°56'8 8.4
2015-Jul-05 03:33N 56°44' E 011°53'9 8.5
2015-Jul-05 02:33N 56°52' E 011°48'8 8.2
2015-Jul-05 01:32N 56°60' E 011°43'8 8.0
2015-Jul-05 00:32N 57°07' E 011°38'8 8.0
2015-Jul-04 23:33N 57°15' E 011°33'8 8.4
2015-Jul-04 22:33N 57°23' E 011°27'8 8.2
2015-Jul-04 21:33N 57°30' E 011°20'8 8.1
2015-Jul-04 20:33N 57°35' E 011°09'10 8.1
2015-Jul-04 19:22N 57°42' E 010°56'7 8.2
2015-Jul-04 18:33N 57°46' E 010°47'9 8.6
2015-Jul-04 17:33N 57°48' E 010°31'9 8.5
2015-Jul-04 16:31N 57°48' E 010°15'145 8.1
2015-Jul-03 22:33N 58°18' E 005°46'9 8.1
2015-Jul-03 21:30N 58°24' E 005°35'32 7.8
2015-Jul-03 17:21N 58°51' E 005°02'7 8.0
2015-Jul-03 16:32N 58°57' E 004°56'8 8.2
2015-Jul-03 15:32N 59°04' E 004°49'  
2015-Jun-30 18:23N 66°17' E 012°19'7 8.0
2015-Jun-30 17:32N 66°14' E 012°35'2 0.1
2015-Jun-29 00:14N 66°13' E 012°40'7 9.7
2015-Jun-28 23:33N 66°16' E 012°24'  
Track history (hours):
 
Tides and Currents Weather Stations Pressure Air Temp Water Temp Dewpoint Dewpoint Depression Visibility Wind Speed Wind Dir Waves Ship Positions

Plato

Last reported at 2015-Jul-05 19:31 UTC. Time now 2015-Jul-05 21:03 UTC.
Position N 56°12' E 012°33'.

Length 88 m; draft 5.3 m.

Type: Ship. MMSI: 314189000.

Date/timePositionNaut miles runAvg speedWind from/ knotsBaromVisibWave heightAir tempDewpointWater temp
2015-Jul-05 19:31N 56°12' E 012°33'0 0.0
2015-Jul-05 18:06N 56°12' E 012°33'0 0.0
2015-Jul-05 12:29N 56°12' E 012°33'0 0.0
2015-Jul-05 11:32N 56°12' E 012°33'0 0.0
2015-Jul-05 10:28N 56°12' E 012°33'0 0.0
2015-Jul-05 09:31N 56°12' E 012°33'2 1.7
2015-Jul-05 08:33N 56°12' E 012°30'6 6.1
2015-Jul-05 07:33N 56°17' E 012°23'8 7.7
2015-Jul-05 06:33N 56°22' E 012°14'8 8.3
2015-Jul-05 05:33N 56°28' E 012°03'8 8.2
2015-Jul-05 04:33N 56°36' E 011°56'8 8.4
2015-Jul-05 03:33N 56°44' E 011°53'9 8.5
2015-Jul-05 02:33N 56°52' E 011°48'8 8.2
2015-Jul-05 01:32N 56°60' E 011°43'8 8.0
2015-Jul-05 00:32N 57°07' E 011°38'8 8.0
2015-Jul-04 23:33N 57°15' E 011°33'8 8.4
2015-Jul-04 22:33N 57°23' E 011°27'8 8.2
2015-Jul-04 21:33N 57°30' E 011°20'8 8.1
2015-Jul-04 20:33N 57°35' E 011°09'10 8.1
2015-Jul-04 19:22N 57°42' E 010°56'7 8.2
2015-Jul-04 18:33N 57°46' E 010°47'9 8.6
2015-Jul-04 17:33N 57°48' E 010°31'9 8.5
2015-Jul-04 16:31N 57°48' E 010°15'145 8.1
2015-Jul-03 22:33N 58°18' E 005°46'9 8.1
2015-Jul-03 21:30N 58°24' E 005°35'32 7.8
2015-Jul-03 17:21N 58°51' E 005°02'7 8.0
2015-Jul-03 16:32N 58°57' E 004°56'8 8.2
2015-Jul-03 15:32N 59°04' E 004°49'  
2015-Jun-30 18:23N 66°17' E 012°19'7 8.0
2015-Jun-30 17:32N 66°14' E 012°35'2 0.1
2015-Jun-29 00:14N 66°13' E 012°40'7 9.7
2015-Jun-28 23:33N 66°16' E 012°24'  

Dump ship's entire track history